createdAt,value
2019-05-16T00:00:29.157Z,0.40
2019-05-16T00:02:58.844Z,0.30
2019-05-16T00:05:28.069Z,0.30
2019-05-16T00:07:59.025Z,0.47
2019-05-16T00:10:28.160Z,0.40
2019-05-16T00:12:59.685Z,0.53
2019-05-16T00:15:28.744Z,0.20
2019-05-16T00:17:58.443Z,0.40
2019-05-16T00:20:28.482Z,0.27
2019-05-16T00:22:58.899Z,0.30
2019-05-16T00:25:28.589Z,0.27
2019-05-16T00:27:58.673Z,0.40
2019-05-16T00:30:28.870Z,0.40
2019-05-16T00:32:58.838Z,0.40
2019-05-16T00:35:28.542Z,0.60
2019-05-16T00:37:59.080Z,0.20
2019-05-16T00:40:27.974Z,0.43
2019-05-16T00:42:58.633Z,0.30
2019-05-16T00:45:29.179Z,0.40
2019-05-16T00:47:58.560Z,0.43
2019-05-16T00:50:28.837Z,0.23
2019-05-16T00:52:58.975Z,0.40
2019-05-16T00:55:29.919Z,0.30
2019-05-16T00:57:58.707Z,0.30
2019-05-16T01:00:45.349Z,0.63
2019-05-16T01:03:14.537Z,0.40
2019-05-16T01:05:44.412Z,0.50
2019-05-16T01:08:13.191Z,0.30
2019-05-16T01:10:41.674Z,0.40
2019-05-16T01:13:10.098Z,0.47
2019-05-16T01:15:38.516Z,0.53
2019-05-16T01:18:08.249Z,0.40
2019-05-16T01:20:38.594Z,0.60
2019-05-16T01:23:08.904Z,0.37
2019-05-16T01:25:38.743Z,1.10
2019-05-16T01:28:08.815Z,0.40
2019-05-16T01:30:38.088Z,0.40
2019-05-16T01:33:08.933Z,0.60
2019-05-16T01:35:38.605Z,0.50
2019-05-16T01:38:08.665Z,2.00
2019-05-16T01:40:38.760Z,0.50
2019-05-16T01:43:08.595Z,0.90
2019-05-16T01:45:38.489Z,0.60
2019-05-16T01:48:08.211Z,0.30
2019-05-16T01:50:38.813Z,0.53
2019-05-16T01:53:08.688Z,0.57
2019-05-16T01:55:38.186Z,0.43
2019-05-16T01:58:08.050Z,0.50
2019-05-16T02:00:49.904Z,0.60
2019-05-16T02:03:08.388Z,0.70
2019-05-16T02:05:38.879Z,0.40
2019-05-16T02:08:08.952Z,0.60
2019-05-16T02:10:37.953Z,0.47
2019-05-16T02:13:08.447Z,0.70
2019-05-16T02:15:38.359Z,0.50
2019-05-16T02:18:08.284Z,0.53
2019-05-16T02:20:39.258Z,0.87
2019-05-16T02:23:08.081Z,0.70
2019-05-16T02:25:40.506Z,0.70
2019-05-16T02:28:06.764Z,0.70
2019-05-16T02:30:35.179Z,0.90
2019-05-16T02:33:03.598Z,0.97
2019-05-16T02:35:32.104Z,0.60
2019-05-16T02:38:01.138Z,0.50
2019-05-16T02:40:31.271Z,0.63
2019-05-16T02:43:02.870Z,0.50
2019-05-16T02:45:32.360Z,0.37
2019-05-16T02:48:01.602Z,1.17
2019-05-16T02:50:31.692Z,0.87
2019-05-16T02:53:01.411Z,0.70
2019-05-16T02:55:30.954Z,0.70
2019-05-16T02:58:00.901Z,0.80
2019-05-16T03:00:42.089Z,0.93
2019-05-16T03:03:07.954Z,1.00
2019-05-16T03:05:36.403Z,0.87
2019-05-16T03:08:06.632Z,0.90
2019-05-16T03:10:35.414Z,0.83
2019-05-16T03:13:03.900Z,0.90
2019-05-16T03:15:32.335Z,0.80
2019-05-16T03:18:04.489Z,0.70
2019-05-16T03:20:35.563Z,1.17
2019-05-16T03:23:06.990Z,1.10
2019-05-16T03:25:35.451Z,1.20
2019-05-16T03:28:03.882Z,1.10
2019-05-16T03:30:35.219Z,1.17
2019-05-16T03:33:04.627Z,1.00
2019-05-16T03:35:33.924Z,0.90
2019-05-16T03:38:05.547Z,0.63
2019-05-16T03:40:35.131Z,1.10
2019-05-16T03:43:03.566Z,1.50
2019-05-16T03:45:32.372Z,1.00
2019-05-16T03:48:03.241Z,0.97
2019-05-16T03:50:32.035Z,1.20
2019-05-16T03:53:01.563Z,1.13
2019-05-16T03:55:32.593Z,1.30
2019-05-16T03:58:01.399Z,1.20
2019-05-16T04:00:52.297Z,1.70
2019-05-16T04:03:32.775Z,1.00
2019-05-16T04:06:00.828Z,1.10
2019-05-16T04:08:31.219Z,1.50
2019-05-16T04:11:01.412Z,1.37
2019-05-16T04:13:31.395Z,1.30
2019-05-16T04:16:01.381Z,1.37
2019-05-16T04:18:31.873Z,1.40
2019-05-16T04:21:06.138Z,1.27
2019-05-16T04:23:34.570Z,1.37
2019-05-16T04:26:02.998Z,1.50
2019-05-16T04:28:32.102Z,1.20
2019-05-16T04:31:01.946Z,1.90
2019-05-16T04:33:31.268Z,1.33
2019-05-16T04:36:16.670Z,1.60
2019-05-16T04:38:46.636Z,1.00
2019-05-16T04:41:15.350Z,1.83
2019-05-16T04:43:43.778Z,1.00
2019-05-16T04:46:13.734Z,1.70
2019-05-16T04:48:42.181Z,1.10
2019-05-16T04:51:10.732Z,1.70
2019-05-16T04:53:42.380Z,1.73
2019-05-16T04:56:11.007Z,1.43
2019-05-16T04:58:41.983Z,1.20
2019-05-16T05:01:11.190Z,1.10
2019-05-16T05:03:41.025Z,1.20
2019-05-16T05:06:11.386Z,1.70
2019-05-16T05:08:50.472Z,1.50
2019-05-16T05:11:12.826Z,1.50
2019-05-16T05:13:43.356Z,1.63
2019-05-16T05:16:11.775Z,1.40
2019-05-16T05:18:43.150Z,1.30
2019-05-16T05:21:11.898Z,1.10
2019-05-16T05:23:40.818Z,1.53
2019-05-16T05:26:10.806Z,1.10
2019-05-16T05:28:40.241Z,1.10
2019-05-16T05:31:10.870Z,0.93
2019-05-16T05:33:41.699Z,0.80
2019-05-16T05:36:12.174Z,0.90
2019-05-16T05:38:40.289Z,1.00
2019-05-16T05:41:10.699Z,1.23
2019-05-16T05:43:39.772Z,0.90
2019-05-16T05:46:10.657Z,0.80
2019-05-16T05:48:40.883Z,0.90
2019-05-16T05:51:11.053Z,0.70
2019-05-16T05:53:40.159Z,0.93
2019-05-16T05:56:11.353Z,1.03
2019-05-16T05:58:40.742Z,1.07
2019-05-16T06:01:11.153Z,0.93
2019-05-16T06:03:39.882Z,0.90
2019-05-16T06:06:10.464Z,0.70
2019-05-16T06:08:40.921Z,0.83
2019-05-16T06:11:10.009Z,0.77
2019-05-16T06:13:40.428Z,0.97
2019-05-16T06:16:10.767Z,1.10
2019-05-16T06:18:39.698Z,0.77
2019-05-16T06:21:11.236Z,0.90
2019-05-16T06:23:40.293Z,1.10
2019-05-16T06:26:11.828Z,1.20
2019-05-16T06:28:41.179Z,0.97
2019-05-16T06:31:14.124Z,1.57
2019-05-16T06:33:41.108Z,0.97
2019-05-16T06:36:11.004Z,1.30
2019-05-16T06:38:40.513Z,1.37
2019-05-16T06:41:10.612Z,1.20
2019-05-16T06:43:40.066Z,1.20
2019-05-16T06:46:10.826Z,1.00
2019-05-16T06:48:39.880Z,0.80
2019-05-16T06:51:10.582Z,0.87
2019-05-16T06:53:40.481Z,0.90
2019-05-16T06:56:10.503Z,0.87
2019-05-16T06:58:47.773Z,0.93
2019-05-16T07:01:10.255Z,0.87
2019-05-16T07:03:40.122Z,0.60
2019-05-16T07:06:11.020Z,0.80
2019-05-16T07:08:40.343Z,0.90
2019-05-16T07:11:10.551Z,0.60
2019-05-16T07:13:40.615Z,1.00
2019-05-16T07:16:09.767Z,1.03
2019-05-16T07:18:40.191Z,0.80
2019-05-16T07:21:10.654Z,0.57
2019-05-16T07:23:40.474Z,0.50
2019-05-16T07:26:09.940Z,0.60
2019-05-16T07:28:40.600Z,0.70
2019-05-16T07:31:17.605Z,0.60
2019-05-16T07:33:40.712Z,0.60
2019-05-16T07:36:10.028Z,0.70
2019-05-16T07:38:40.048Z,0.60
2019-05-16T07:41:11.162Z,0.93
2019-05-16T07:43:40.031Z,1.63
2019-05-16T07:46:11.018Z,1.00
2019-05-16T07:48:40.330Z,1.20
2019-05-16T07:51:10.294Z,1.40
2019-05-16T07:53:40.301Z,1.50
2019-05-16T07:56:10.592Z,2.20
2019-05-16T07:58:41.389Z,1.80
2019-05-16T08:01:12.418Z,1.57
2019-05-16T08:03:43.744Z,1.53
2019-05-16T08:06:10.964Z,1.60
2019-05-16T08:08:40.357Z,2.00
2019-05-16T08:11:11.794Z,1.83
2019-05-16T08:13:40.008Z,1.93
2019-05-16T08:16:10.242Z,2.10
2019-05-16T08:18:41.664Z,1.60
2019-05-16T08:21:11.451Z,2.40
2019-05-16T08:23:41.107Z,1.93
2019-05-16T08:26:10.364Z,2.00
2019-05-16T08:28:41.195Z,2.00
2019-05-16T08:31:11.808Z,1.80
2019-05-16T08:33:41.585Z,2.20
2019-05-16T08:36:11.905Z,2.27
2019-05-16T08:38:43.022Z,2.00
2019-05-16T08:41:14.364Z,1.50
2019-05-16T08:43:41.473Z,1.67
2019-05-16T08:46:12.300Z,1.10
2019-05-16T08:48:42.251Z,1.37
2019-05-16T08:51:12.188Z,1.80
2019-05-16T08:53:43.238Z,1.77
2019-05-16T08:56:13.531Z,1.97
2019-05-16T08:58:41.196Z,1.30
2019-05-16T09:01:14.794Z,1.80
2019-05-16T09:03:41.573Z,1.43
2019-05-16T09:06:11.762Z,1.10
2019-05-16T09:08:40.196Z,1.07
2019-05-16T09:13:38.752Z,1.23
2019-05-16T09:16:07.891Z,1.20
2019-05-16T09:18:36.428Z,1.50
2019-05-16T09:18:41.267Z,1.07
2019-05-16T09:21:07.365Z,1.43
2019-05-16T09:23:38.415Z,1.70
2019-05-16T09:26:15.408Z,1.13
2019-05-16T09:28:38.947Z,1.00
2019-05-16T09:31:07.191Z,1.20
2019-05-16T09:33:37.542Z,0.90
2019-05-16T09:36:08.054Z,1.27
2019-05-16T09:38:38.277Z,0.90
2019-05-16T09:41:07.893Z,0.90
2019-05-16T09:43:38.943Z,1.07
2019-05-16T09:46:07.812Z,0.77
2019-05-16T09:48:37.985Z,0.90
2019-05-16T09:51:06.835Z,1.10
2019-05-16T09:53:36.577Z,1.37
2019-05-16T09:56:07.043Z,1.20
2019-05-16T09:58:37.245Z,1.67
2019-05-16T10:01:06.671Z,1.50
2019-05-16T10:03:37.304Z,1.20
2019-05-16T10:06:08.105Z,1.27
2019-05-16T10:08:37.476Z,1.53
2019-05-16T10:11:06.310Z,1.07
2019-05-16T10:13:37.298Z,1.10
2019-05-16T10:16:08.218Z,1.10
2019-05-16T10:18:37.103Z,1.53
2019-05-16T10:21:07.989Z,1.00
2019-05-16T10:23:36.434Z,1.20
2019-05-16T10:26:05.078Z,1.30
2019-05-16T10:28:33.587Z,1.27
2019-05-16T10:31:02.025Z,1.00
2019-05-16T10:33:30.511Z,1.20
2019-05-16T10:35:58.927Z,1.50
2019-05-16T10:38:28.741Z,1.10
2019-05-16T10:40:57.365Z,1.20
2019-05-16T10:43:26.489Z,1.10
2019-05-16T10:45:55.093Z,1.33
2019-05-16T10:48:23.617Z,1.27
2019-05-16T10:50:52.157Z,1.20
2019-05-16T10:53:50.041Z,1.57
2019-05-16T10:55:50.958Z,0.87
2019-05-16T10:58:35.498Z,1.53
2019-05-16T11:01:10.907Z,0.80
2019-05-16T11:03:19.747Z,0.90
2019-05-16T11:06:01.205Z,0.80
2019-05-16T11:08:18.521Z,0.87
2019-05-16T11:10:47.637Z,1.00
2019-05-16T11:13:19.819Z,0.73
2019-05-16T11:15:47.442Z,0.60
2019-05-16T11:18:17.594Z,0.60
2019-05-16T11:20:49.200Z,0.67
2019-05-16T11:23:22.255Z,1.00
2019-05-16T11:25:47.093Z,0.60
2019-05-16T11:28:17.705Z,0.80
2019-05-16T11:30:47.589Z,0.80
2019-05-16T11:33:17.445Z,0.93
2019-05-16T11:35:47.612Z,0.93
2019-05-16T11:38:17.834Z,0.50
2019-05-16T11:40:47.554Z,0.43
2019-05-16T11:43:21.105Z,0.40
2019-05-16T11:45:47.363Z,0.53
2019-05-16T11:48:17.124Z,0.50
2019-05-16T11:50:47.974Z,0.60
2019-05-16T11:53:17.493Z,0.60
2019-05-16T11:55:54.456Z,0.67
2019-05-16T11:58:18.060Z,0.30
2019-05-16T12:00:48.236Z,0.70
2019-05-16T12:03:17.213Z,0.60
2019-05-16T12:05:48.189Z,0.60
2019-05-16T12:08:17.483Z,0.43
2019-05-16T12:10:47.175Z,0.80
2019-05-16T12:13:28.205Z,0.60
2019-05-16T12:15:49.110Z,0.70
2019-05-16T12:18:17.571Z,0.67
2019-05-16T12:20:46.058Z,0.60
2019-05-16T12:23:17.179Z,0.60
2019-05-16T12:25:47.370Z,0.87
2019-05-16T12:28:16.874Z,0.67
2019-05-16T12:30:47.128Z,0.50
2019-05-16T12:33:18.396Z,0.67
2019-05-16T12:35:47.403Z,0.80
2019-05-16T12:38:17.031Z,1.00
2019-05-16T12:40:47.958Z,1.20
2019-05-16T12:43:18.062Z,1.17
2019-05-16T12:45:47.268Z,1.23
2019-05-16T12:48:19.932Z,1.40
2019-05-16T12:50:47.935Z,4.30
2019-05-16T12:53:16.740Z,1.87
2019-05-16T12:55:47.360Z,1.80
2019-05-16T12:58:24.584Z,2.27
2019-05-16T13:00:54.099Z,2.03
2019-05-16T13:03:15.631Z,2.20
2019-05-16T13:05:44.065Z,6.03
2019-05-16T13:08:12.524Z,2.97
2019-05-16T13:10:41.674Z,3.60
2019-05-16T13:13:10.120Z,3.57
2019-05-16T13:15:42.087Z,3.40
2019-05-16T13:18:08.775Z,3.17
2019-05-16T13:20:41.009Z,3.37
2019-05-16T13:23:14.473Z,3.83
2019-05-16T13:25:37.799Z,4.40
2019-05-16T13:28:08.243Z,3.97
2019-05-16T13:30:37.737Z,5.07
2019-05-16T13:33:07.305Z,4.73
2019-05-16T13:35:37.017Z,4.70
2019-05-16T13:38:07.961Z,5.20
2019-05-16T13:40:36.375Z,5.70
2019-05-16T13:43:09.340Z,6.60
2019-05-16T13:45:37.506Z,6.73
2019-05-16T13:48:07.839Z,7.07
2019-05-16T13:50:37.297Z,8.30
2019-05-16T13:53:07.842Z,7.87
2019-05-16T13:55:37.746Z,7.53
2019-05-16T13:58:07.744Z,7.40
2019-05-16T14:00:37.530Z,8.17
2019-05-16T14:03:07.421Z,8.70
2019-05-16T14:05:38.076Z,8.07
2019-05-16T14:08:06.987Z,8.90
2019-05-16T14:10:37.654Z,8.53
2019-05-16T14:13:07.482Z,9.60
2019-05-16T14:15:36.753Z,8.53
2019-05-16T14:18:07.744Z,9.63
2019-05-16T14:20:37.678Z,9.10
2019-05-16T14:23:08.512Z,9.67
2019-05-16T14:25:38.090Z,9.20
2019-05-16T14:28:07.672Z,9.30
2019-05-16T14:30:37.278Z,8.83
2019-05-16T14:33:13.030Z,9.30
2019-05-16T14:35:37.702Z,10.27
2019-05-16T14:38:06.490Z,9.77
2019-05-16T14:40:37.357Z,9.80
2019-05-16T14:43:08.191Z,11.57
2019-05-16T14:45:37.266Z,11.20
2019-05-16T14:48:07.505Z,10.83
2019-05-16T14:50:37.554Z,11.33
2019-05-16T14:53:07.463Z,11.77
2019-05-16T14:55:38.269Z,10.70
2019-05-16T14:58:07.497Z,10.67
2019-05-16T15:00:38.313Z,11.17
2019-05-16T15:03:08.260Z,11.43
2019-05-16T15:05:42.406Z,12.53
2019-05-16T15:08:08.190Z,11.53
2019-05-16T15:10:37.739Z,11.40
2019-05-16T15:13:07.948Z,11.53
2019-05-16T15:15:37.584Z,11.30
2019-05-16T15:18:08.216Z,12.27
2019-05-16T15:20:36.588Z,11.10
2019-05-16T15:23:07.413Z,11.73
2019-05-16T15:25:37.454Z,13.37
2019-05-16T15:28:07.571Z,12.07
2019-05-16T15:30:38.991Z,12.87
2019-05-16T15:33:08.624Z,12.70
2019-05-16T15:35:38.076Z,12.67
2019-05-16T15:38:07.826Z,10.47
2019-05-16T15:40:37.697Z,11.00
2019-05-16T15:43:07.821Z,10.43
2019-05-16T15:45:43.969Z,11.73
2019-05-16T15:48:12.012Z,11.33
2019-05-16T15:50:41.084Z,11.27
2019-05-16T15:53:09.986Z,11.40
2019-05-16T15:55:38.583Z,10.43
2019-05-16T15:58:10.211Z,10.33
2019-05-16T16:00:43.169Z,10.77
2019-05-16T16:03:12.059Z,11.37
2019-05-16T16:05:40.499Z,11.90
2019-05-16T16:08:09.128Z,10.67
2019-05-16T16:10:43.772Z,11.47
2019-05-16T16:13:12.290Z,11.33
2019-05-16T16:15:50.333Z,11.63
2019-05-16T16:18:11.227Z,10.87
2019-05-16T16:20:39.660Z,11.87
2019-05-16T16:23:08.117Z,11.53
2019-05-16T16:25:36.717Z,11.17
2019-05-16T16:28:07.299Z,10.97
2019-05-16T16:30:37.396Z,10.57
2019-05-16T16:33:20.014Z,11.30
2019-05-16T16:35:37.863Z,10.43
2019-05-16T16:38:07.218Z,12.27
2019-05-16T16:40:37.591Z,11.37
2019-05-16T16:43:07.938Z,12.33
2019-05-16T16:45:36.312Z,11.83
2019-05-16T16:48:07.632Z,11.93
2019-05-16T16:50:37.101Z,13.63
2019-05-16T16:53:07.182Z,13.20
2019-05-16T16:55:37.072Z,13.80
2019-05-16T16:58:09.241Z,11.10
2019-05-16T17:00:37.701Z,11.80
2019-05-16T17:03:09.936Z,14.23
2019-05-16T17:05:37.187Z,15.60
2019-05-16T17:08:07.638Z,17.50
2019-05-16T17:10:38.015Z,17.97
2019-05-16T17:13:06.925Z,17.93
2019-05-16T17:15:36.703Z,18.43
2019-05-16T17:18:06.951Z,18.93
2019-05-16T17:20:37.197Z,20.43
2019-05-16T17:23:06.934Z,19.83
2019-05-16T17:25:36.618Z,20.97
2019-05-16T17:28:06.942Z,23.83
2019-05-16T17:30:36.758Z,22.60
2019-05-16T17:33:07.554Z,20.10
2019-05-16T17:35:38.553Z,20.37
2019-05-16T17:38:06.678Z,20.53
2019-05-16T17:40:37.931Z,19.70
2019-05-16T17:43:07.383Z,18.23
2019-05-16T17:45:37.494Z,17.90
2019-05-16T17:48:06.882Z,17.43
2019-05-16T17:50:37.515Z,18.30
2019-05-16T17:53:07.134Z,17.40
2019-05-16T17:55:36.821Z,18.77
2019-05-16T17:58:08.787Z,17.97
2019-05-16T18:00:36.015Z,18.37
2019-05-16T18:03:06.703Z,19.33
2019-05-16T18:05:37.155Z,16.83
2019-05-16T18:08:07.165Z,15.43
2019-05-16T18:10:36.488Z,14.90
2019-05-16T18:13:07.717Z,14.47
2019-05-16T18:15:36.746Z,14.53
2019-05-16T18:18:07.131Z,12.77
2019-05-16T18:20:37.290Z,13.00
2019-05-16T18:23:07.014Z,13.37
2019-05-16T18:25:36.642Z,13.37
2019-05-16T18:28:07.918Z,15.53
2019-05-16T18:30:36.628Z,14.43
2019-05-16T18:33:07.361Z,13.80
2019-05-16T18:35:37.002Z,13.67
2019-05-16T18:38:07.347Z,13.00
2019-05-16T18:40:36.783Z,13.07
2019-05-16T18:43:07.855Z,12.63
2019-05-16T18:45:36.657Z,13.37
2019-05-16T18:48:07.277Z,12.80
2019-05-16T18:50:37.473Z,12.53
2019-05-16T18:53:07.598Z,11.73
2019-05-16T18:55:37.259Z,12.20
2019-05-16T18:58:08.638Z,12.30
2019-05-16T19:00:37.532Z,12.47
2019-05-16T19:03:07.643Z,13.10
2019-05-16T19:05:37.238Z,12.70
2019-05-16T19:08:07.329Z,13.60
2019-05-16T19:10:36.812Z,13.57
2019-05-16T19:13:08.069Z,13.47
2019-05-16T19:15:37.527Z,14.10
2019-05-16T19:18:06.966Z,14.23
2019-05-16T19:20:37.457Z,15.77
2019-05-16T19:23:07.435Z,17.93
2019-05-16T19:25:36.055Z,13.40
2019-05-16T19:28:06.828Z,13.60
2019-05-16T19:30:37.094Z,12.90
2019-05-16T19:33:06.853Z,12.90
2019-05-16T19:35:35.224Z,12.97
2019-05-16T19:38:03.665Z,12.27
2019-05-16T19:40:32.114Z,13.27
2019-05-16T19:43:00.555Z,12.00
2019-05-16T19:45:29.001Z,11.00
2019-05-16T19:47:58.112Z,11.77
2019-05-16T19:50:26.846Z,11.70
2019-05-16T19:52:56.670Z,13.00
2019-05-16T19:55:27.054Z,11.60
2019-05-16T19:57:57.251Z,12.07
2019-05-16T20:00:26.732Z,12.37
2019-05-16T20:02:56.940Z,12.77
2019-05-16T20:05:26.705Z,12.20
2019-05-16T20:07:55.449Z,11.83
2019-05-16T20:10:24.139Z,10.93
2019-05-16T20:12:52.608Z,11.33
2019-05-16T20:15:21.266Z,10.60
2019-05-16T20:17:57.749Z,11.73
2019-05-16T20:20:20.176Z,12.03
2019-05-16T20:22:48.678Z,13.30
2019-05-16T20:25:17.277Z,13.80
2019-05-16T20:27:46.936Z,12.67
2019-05-16T20:30:17.474Z,12.93
2019-05-16T20:32:45.924Z,12.20
2019-05-16T20:35:14.500Z,12.23
2019-05-16T20:37:42.935Z,13.47
2019-05-16T20:42:41.007Z,13.60
2019-05-16T20:45:10.147Z,13.20
2019-05-16T20:47:38.576Z,12.87
2019-05-16T20:50:08.419Z,14.03
2019-05-16T20:52:38.468Z,13.20
2019-05-16T20:55:10.663Z,13.17
2019-05-16T20:57:42.109Z,12.57
2019-05-16T21:00:17.550Z,12.57
2019-05-16T21:02:49.539Z,13.43
2019-05-16T21:05:18.195Z,13.03
2019-05-16T21:07:51.269Z,13.60
2019-05-16T21:10:19.913Z,13.67
2019-05-16T21:12:48.804Z,13.13
2019-05-16T21:15:22.741Z,12.17
2019-05-16T21:17:56.569Z,12.50
2019-05-16T21:20:29.552Z,12.57
2019-05-16T21:22:56.488Z,13.67
2019-05-16T21:25:26.521Z,12.40
2019-05-16T21:28:07.911Z,12.10
2019-05-16T21:30:36.817Z,13.17
2019-05-16T21:33:07.282Z,13.00
2019-05-16T21:35:37.018Z,13.23
2019-05-16T21:38:08.749Z,12.27
2019-05-16T21:40:37.141Z,11.73
2019-05-16T21:43:07.493Z,12.50
2019-05-16T21:45:37.177Z,12.83
2019-05-16T21:48:07.398Z,13.83
2019-05-16T21:50:36.832Z,13.37
2019-05-16T21:53:07.873Z,13.73
2019-05-16T21:55:37.046Z,13.37
2019-05-16T21:58:05.982Z,14.00
2019-05-16T22:00:39.142Z,13.40
2019-05-16T22:03:09.262Z,14.43
2019-05-16T22:05:37.697Z,14.33
2019-05-16T22:08:07.423Z,14.17
2019-05-16T22:10:37.343Z,13.37
2019-05-16T22:13:07.825Z,14.47
2019-05-16T22:15:36.754Z,13.37
2019-05-16T22:18:07.239Z,15.93
2019-05-16T22:20:35.594Z,14.23
2019-05-16T22:23:04.111Z,14.97
2019-05-16T22:25:32.622Z,15.20
2019-05-16T22:28:01.160Z,14.13
2019-05-16T22:30:29.657Z,15.33
2019-05-16T22:32:58.089Z,15.07
2019-05-16T22:35:27.477Z,15.00
2019-05-16T22:37:59.216Z,15.63
2019-05-16T22:40:26.693Z,16.20
2019-05-16T22:42:57.555Z,16.57
2019-05-16T22:45:27.023Z,16.23
2019-05-16T22:47:58.736Z,15.80
2019-05-16T22:50:29.764Z,16.23
2019-05-16T22:52:58.209Z,15.70
2019-05-16T22:55:26.823Z,16.80
2019-05-16T22:57:56.525Z,14.67
2019-05-16T23:00:29.173Z,15.50
2019-05-16T23:02:57.618Z,15.73
2019-05-16T23:05:27.409Z,16.07
2019-05-16T23:08:05.154Z,15.10
2019-05-16T23:10:28.117Z,16.07
2019-05-16T23:12:57.242Z,15.77
2019-05-16T23:15:26.599Z,13.90
2019-05-16T23:17:57.366Z,14.00
2019-05-16T23:20:27.573Z,14.13
2019-05-16T23:22:56.365Z,15.17
2019-05-16T23:25:25.209Z,16.20
2019-05-16T23:27:53.634Z,16.00
2019-05-16T23:30:22.325Z,14.33
2019-05-16T23:32:50.756Z,14.20
2019-05-16T23:35:19.198Z,15.20
2019-05-16T23:37:47.654Z,14.93
2019-05-16T23:40:16.936Z,16.00
2019-05-16T23:42:46.508Z,15.37
2019-05-16T23:45:17.195Z,14.60
2019-05-16T23:47:47.103Z,13.10
2019-05-16T23:50:17.134Z,15.67
2019-05-16T23:52:47.055Z,16.20
2019-05-16T23:55:17.307Z,16.33
2019-05-16T23:57:46.589Z,17.83
